createdAt,value
2022-08-22T00:01:48.859Z,6.47
2022-08-22T00:04:51.723Z,6.00
2022-08-22T00:08:19.893Z,7.32
2022-08-22T00:10:57.722Z,6.45
2022-08-22T00:13:37.010Z,5.82
2022-08-22T00:16:17.719Z,6.07
2022-08-22T00:19:05.712Z,6.78
2022-08-22T00:21:52.938Z,7.43
2022-08-22T00:24:38.878Z,6.85
2022-08-22T00:27:34.133Z,6.97
2022-08-22T00:30:11.519Z,6.78
2022-08-22T00:32:49.488Z,6.93
2022-08-22T00:35:36.461Z,6.65
2022-08-22T00:38:27.073Z,6.55
2022-08-22T00:41:14.408Z,7.10
2022-08-22T00:44:31.540Z,7.13
2022-08-22T00:47:37.055Z,6.72
2022-08-22T00:50:34.334Z,6.65
2022-08-22T00:53:48.145Z,6.22
2022-08-22T00:56:47.204Z,6.65
2022-08-22T00:59:56.570Z,6.85
2022-08-22T01:02:43.725Z,6.63
2022-08-22T01:05:17.178Z,6.55
2022-08-22T01:08:09.491Z,6.72
2022-08-22T01:11:05.247Z,6.88
2022-08-22T01:14:01.721Z,6.88
2022-08-22T01:17:19.144Z,6.75
2022-08-22T01:20:11.210Z,7.00
2022-08-22T01:23:31.279Z,7.45
2022-08-22T01:26:36.308Z,7.38
2022-08-22T01:29:49.530Z,6.90
2022-08-22T01:32:58.511Z,6.60
2022-08-22T01:36:01.342Z,6.80
2022-08-22T01:39:04.759Z,6.57
2022-08-22T01:42:39.236Z,6.68
2022-08-22T01:45:34.933Z,6.35
2022-08-22T01:48:35.586Z,6.97
2022-08-22T01:51:25.822Z,6.65
2022-08-22T01:54:30.065Z,6.65
2022-08-22T01:57:08.127Z,7.47
2022-08-22T01:59:42.503Z,6.80
2022-08-22T02:02:51.612Z,7.25
2022-08-22T02:05:27.603Z,7.45
2022-08-22T02:08:33.464Z,7.15
2022-08-22T02:11:34.842Z,7.00
2022-08-22T02:14:37.898Z,6.10
2022-08-22T02:17:28.335Z,5.93
2022-08-22T02:20:08.893Z,6.22
2022-08-22T02:22:56.759Z,6.35
2022-08-22T02:25:33.156Z,5.63
2022-08-22T02:28:12.755Z,6.25
2022-08-22T02:30:54.325Z,5.85
2022-08-22T02:33:38.718Z,6.22
2022-08-22T02:36:21.174Z,6.30
2022-08-22T02:39:25.935Z,6.53
2022-08-22T02:42:49.377Z,6.65
2022-08-22T02:45:39.733Z,5.95
2022-08-22T02:48:19.484Z,5.55
2022-08-22T02:50:55.058Z,5.53
2022-08-22T02:53:45.596Z,6.22
2022-08-22T02:56:35.045Z,6.60
2022-08-22T02:59:27.283Z,6.13
2022-08-22T03:01:55.880Z,7.00
2022-08-22T03:04:31.790Z,6.80
2022-08-22T03:07:23.041Z,7.38
2022-08-22T03:09:59.362Z,7.30
2022-08-22T03:13:00.780Z,6.72
2022-08-22T03:15:52.891Z,6.97
2022-08-22T03:18:44.656Z,6.40
2022-08-22T03:21:43.050Z,6.32
2022-08-22T03:24:29.478Z,6.20
2022-08-22T03:27:11.721Z,5.63
2022-08-22T03:29:53.587Z,5.80
2022-08-22T03:35:09.550Z,5.78
2022-08-22T03:37:40.491Z,5.40
2022-08-22T03:40:20.259Z,6.68
2022-08-22T03:43:22.976Z,5.97
2022-08-22T03:46:14.906Z,6.10
2022-08-22T03:49:06.278Z,6.05
2022-08-22T03:51:51.390Z,6.30
2022-08-22T03:54:57.857Z,6.50
2022-08-22T03:58:02.341Z,5.32
2022-08-22T04:01:03.659Z,4.97
2022-08-22T04:03:57.671Z,6.20
2022-08-22T04:07:05.899Z,5.68
2022-08-22T04:10:12.722Z,5.50
2022-08-22T04:13:09.880Z,6.13
2022-08-22T04:16:04.256Z,5.88
2022-08-22T04:19:18.510Z,6.05
2022-08-22T04:22:26.770Z,5.65
2022-08-22T04:25:16.840Z,6.22
2022-08-22T04:27:55.878Z,6.25
2022-08-22T04:30:50.620Z,7.20
2022-08-22T04:33:28.396Z,6.85
2022-08-22T04:36:10.120Z,6.70
2022-08-22T04:41:37.897Z,6.40
2022-08-22T04:44:14.328Z,6.15
2022-08-22T04:46:55.462Z,5.88
2022-08-22T04:50:04.513Z,6.30
2022-08-22T04:53:12.372Z,6.70
2022-08-22T04:55:54.119Z,6.88
2022-08-22T05:01:55.663Z,6.78
2022-08-22T05:04:30.542Z,6.93
2022-08-22T05:07:15.922Z,7.25
2022-08-22T05:10:11.630Z,6.47
2022-08-22T05:12:49.618Z,7.40
2022-08-22T05:15:24.421Z,6.88
2022-08-22T05:18:02.830Z,7.50
2022-08-22T05:20:30.904Z,7.15
2022-08-22T05:23:25.062Z,7.72
2022-08-22T05:26:01.118Z,7.05
2022-08-22T05:28:39.808Z,7.07
2022-08-22T05:31:17.042Z,7.70
2022-08-22T05:34:04.522Z,6.72
2022-08-22T05:36:54.461Z,7.65
2022-08-22T05:39:28.094Z,6.97
2022-08-22T05:42:02.955Z,7.15
2022-08-22T05:44:38.125Z,9.15
2022-08-22T05:47:36.447Z,7.60
2022-08-22T05:50:08.880Z,8.27
2022-08-22T05:53:12.831Z,7.45
2022-08-22T05:55:49.214Z,8.23
2022-08-22T05:58:31.740Z,8.43
2022-08-22T06:01:22.803Z,8.75
2022-08-22T06:04:06.960Z,8.43
2022-08-22T06:07:17.414Z,8.80
2022-08-22T06:09:47.722Z,8.43
2022-08-22T06:12:31.835Z,9.13
2022-08-22T06:15:34.609Z,8.88
2022-08-22T06:18:12.766Z,8.40
2022-08-22T06:20:49.389Z,8.20
2022-08-22T06:23:30.004Z,7.75
2022-08-22T06:26:01.339Z,7.93
2022-08-22T06:28:55.228Z,7.78
2022-08-22T06:31:34.477Z,9.43
2022-08-22T06:34:17.275Z,10.07
2022-08-22T06:36:49.769Z,10.07
2022-08-22T06:39:24.977Z,10.10
2022-08-22T06:42:03.516Z,9.68
2022-08-22T06:44:38.919Z,9.82
2022-08-22T06:47:13.001Z,10.35
2022-08-22T06:49:45.473Z,10.90
2022-08-22T06:52:23.345Z,9.57
2022-08-22T06:55:06.148Z,9.68
2022-08-22T07:00:17.115Z,9.90
2022-08-22T07:02:54.665Z,9.82
2022-08-22T07:05:29.503Z,10.27
2022-08-22T07:07:58.017Z,10.43
2022-08-22T07:10:26.050Z,10.50
2022-08-22T07:12:56.890Z,9.57
2022-08-22T07:15:36.604Z,9.07
2022-08-22T07:18:27.315Z,9.90
2022-08-22T07:21:02.797Z,9.52
2022-08-22T07:23:45.983Z,9.23
2022-08-22T07:26:54.389Z,8.27
2022-08-22T07:29:45.624Z,9.13
2022-08-22T07:32:21.002Z,9.10
2022-08-22T07:35:15.822Z,9.45
2022-08-22T07:38:06.374Z,9.00
2022-08-22T07:40:38.567Z,9.30
2022-08-22T07:45:56.617Z,8.82
2022-08-22T07:48:29.944Z,8.20
2022-08-22T07:51:13.567Z,8.43
2022-08-22T07:54:00.910Z,8.52
2022-08-22T07:56:38.044Z,8.70
2022-08-22T07:59:17.145Z,9.40
2022-08-22T08:01:50.019Z,9.57
2022-08-22T08:04:26.105Z,9.20
2022-08-22T08:06:59.527Z,8.38
2022-08-22T08:09:38.762Z,8.93
2022-08-22T08:12:11.050Z,8.68
2022-08-22T08:14:44.351Z,8.77
2022-08-22T08:17:32.342Z,8.75
2022-08-22T08:20:09.012Z,7.93
2022-08-22T08:22:40.702Z,7.40
2022-08-22T08:25:13.163Z,7.60
2022-08-22T08:28:00.275Z,8.25
2022-08-22T08:30:47.505Z,7.45
2022-08-22T08:33:24.865Z,8.05
2022-08-22T08:36:09.966Z,7.80
2022-08-22T08:39:12.557Z,8.65
2022-08-22T08:42:11.950Z,7.78
2022-08-22T08:45:18.694Z,7.22
2022-08-22T08:48:22.561Z,7.60
2022-08-22T08:51:07.345Z,7.82
2022-08-22T08:54:09.214Z,7.38
2022-08-22T08:57:06.771Z,8.23
2022-08-22T09:00:07.619Z,7.65
2022-08-22T09:02:59.423Z,7.38
2022-08-22T09:06:13.289Z,6.88
2022-08-22T09:09:38.556Z,6.80
2022-08-22T09:12:30.169Z,6.13
2022-08-22T09:15:22.181Z,5.32
2022-08-22T09:18:41.371Z,6.57
2022-08-22T09:22:02.858Z,6.30
2022-08-22T09:25:15.594Z,5.97
2022-08-22T09:28:17.306Z,5.78
2022-08-22T09:31:21.928Z,5.88
2022-08-22T09:34:16.913Z,4.72
2022-08-22T09:37:29.711Z,5.70
2022-08-22T09:40:18.843Z,5.47
2022-08-22T09:42:59.282Z,5.05
2022-08-22T09:45:57.487Z,3.30
2022-08-22T09:48:56.398Z,3.28
2022-08-22T09:51:44.914Z,3.17
2022-08-22T09:54:31.409Z,3.80
2022-08-22T09:57:13.865Z,3.90
2022-08-22T10:02:36.242Z,2.72
2022-08-22T10:05:04.014Z,3.03
2022-08-22T10:08:01.967Z,2.45
2022-08-22T10:11:13.424Z,2.47
2022-08-22T10:14:04.959Z,2.63
2022-08-22T10:19:44.409Z,2.70
2022-08-22T10:23:21.040Z,2.70
2022-08-22T10:26:12.945Z,2.53
2022-08-22T10:29:09.048Z,2.63
2022-08-22T10:32:16.361Z,2.25
2022-08-22T10:34:53.339Z,2.53
2022-08-22T10:37:48.987Z,2.95
2022-08-22T10:40:37.939Z,3.10
2022-08-22T10:43:20.069Z,2.65
2022-08-22T10:46:13.834Z,3.72
2022-08-22T10:49:08.043Z,2.90
2022-08-22T10:51:56.501Z,2.50
2022-08-22T10:55:05.709Z,23.48
2022-08-22T10:57:59.021Z,3.22
2022-08-22T11:00:46.046Z,2.35
2022-08-22T11:03:51.561Z,2.60
2022-08-22T11:06:48.907Z,2.35
2022-08-22T11:09:31.192Z,2.47
2022-08-22T11:12:37.253Z,2.33
2022-08-22T11:15:34.751Z,1.90
2022-08-22T11:18:57.999Z,1.98
2022-08-22T11:22:21.614Z,2.15
2022-08-22T11:25:29.191Z,2.40
2022-08-22T11:28:25.330Z,2.08
2022-08-22T11:31:09.523Z,2.53
2022-08-22T11:33:59.239Z,2.30
2022-08-22T11:36:47.354Z,2.20
2022-08-22T11:40:06.119Z,2.85
2022-08-22T11:45:51.855Z,2.40
2022-08-22T11:49:02.462Z,2.30
2022-08-22T11:51:51.772Z,2.60
2022-08-22T11:54:34.828Z,2.38
2022-08-22T11:57:17.612Z,2.53
2022-08-22T11:59:44.950Z,2.00
2022-08-22T12:02:55.058Z,2.28
2022-08-22T12:05:30.818Z,1.90
2022-08-22T12:08:13.412Z,2.30
2022-08-22T12:11:03.440Z,2.17
2022-08-22T12:13:52.551Z,2.30
2022-08-22T12:16:49.290Z,2.40
2022-08-22T12:20:12.755Z,2.25
2022-08-22T12:23:18.155Z,1.98
2022-08-22T12:26:03.685Z,2.30
2022-08-22T12:29:34.176Z,2.63
2022-08-22T12:33:02.181Z,2.15
2022-08-22T12:35:37.450Z,2.22
2022-08-22T12:38:39.915Z,2.53
2022-08-22T12:41:38.317Z,2.70
2022-08-22T12:44:48.640Z,2.28
2022-08-22T12:47:53.591Z,2.73
2022-08-22T12:51:17.581Z,2.25
2022-08-22T12:53:55.747Z,2.53
2022-08-22T12:57:23.744Z,2.15
2022-08-22T13:00:22.965Z,2.40
2022-08-22T13:02:56.582Z,2.85
2022-08-22T13:05:29.357Z,2.70
2022-08-22T13:08:05.373Z,2.53
2022-08-22T13:10:40.200Z,2.63
2022-08-22T13:13:14.514Z,2.70
2022-08-22T13:15:59.739Z,2.00
2022-08-22T13:18:53.432Z,1.95
2022-08-22T13:21:34.674Z,1.90
2022-08-22T13:24:16.783Z,2.33
2022-08-22T13:27:02.251Z,2.22
2022-08-22T13:29:57.396Z,1.85
2022-08-22T13:32:49.922Z,2.40
2022-08-22T13:35:38.315Z,1.77
2022-08-22T13:38:21.019Z,1.90
2022-08-22T13:40:58.218Z,2.17
2022-08-22T13:43:37.945Z,2.17
2022-08-22T13:46:11.181Z,2.40
2022-08-22T13:49:00.562Z,2.55
2022-08-22T13:51:45.302Z,2.20
2022-08-22T13:54:38.947Z,2.20
2022-08-22T13:57:43.560Z,2.20
2022-08-22T14:01:08.846Z,2.85
2022-08-22T14:04:00.855Z,2.17
2022-08-22T14:06:41.173Z,2.40
2022-08-22T14:09:39.741Z,2.20
2022-08-22T14:12:22.952Z,2.60
2022-08-22T14:14:59.535Z,2.72
2022-08-22T14:17:42.848Z,2.10
2022-08-22T14:20:31.954Z,2.30
2022-08-22T14:23:29.323Z,2.55
2022-08-22T14:25:57.692Z,2.28
2022-08-22T14:28:33.353Z,1.92
2022-08-22T14:31:13.756Z,1.92
2022-08-22T14:33:52.263Z,2.30
2022-08-22T14:36:26.929Z,1.70
2022-08-22T14:39:16.521Z,2.10
2022-08-22T14:42:03.927Z,2.40
2022-08-22T14:44:44.372Z,2.40
2022-08-22T14:47:54.568Z,2.10
2022-08-22T14:50:42.132Z,2.08
2022-08-22T14:53:32.280Z,2.58
2022-08-22T14:56:15.374Z,1.90
2022-08-22T14:58:53.587Z,2.20
2022-08-22T15:01:26.322Z,2.10
2022-08-22T15:04:23.946Z,1.90
2022-08-22T15:06:58.617Z,2.22
2022-08-22T15:09:40.488Z,1.83
2022-08-22T15:12:35.626Z,1.70
2022-08-22T15:15:49.439Z,2.30
2022-08-22T15:18:27.844Z,2.38
2022-08-22T15:21:24.538Z,2.20
2022-08-22T15:23:59.647Z,2.10
2022-08-22T15:26:40.003Z,1.70
2022-08-22T15:29:20.599Z,1.93
2022-08-22T15:31:56.583Z,2.20
2022-08-22T15:34:29.328Z,1.80
2022-08-22T15:37:07.851Z,2.08
2022-08-22T15:40:00.542Z,2.10
2022-08-22T15:42:40.056Z,1.80
2022-08-22T15:45:20.270Z,2.10
2022-08-22T15:47:53.680Z,2.22
2022-08-22T15:50:56.848Z,2.28
2022-08-22T15:54:16.065Z,1.70
2022-08-22T15:57:24.425Z,2.00
2022-08-22T16:00:01.505Z,2.38
2022-08-22T16:02:40.005Z,2.53
2022-08-22T16:05:10.543Z,2.30
2022-08-22T16:07:58.438Z,2.00
2022-08-22T16:10:25.790Z,2.47
2022-08-22T16:13:27.347Z,2.35
2022-08-22T16:16:12.707Z,2.20
2022-08-22T16:18:40.178Z,2.42
2022-08-22T16:21:27.885Z,2.10
2022-08-22T16:23:58.435Z,2.20
2022-08-22T16:26:32.064Z,2.05
2022-08-22T16:28:59.494Z,2.47
2022-08-22T16:31:35.999Z,1.80
2022-08-22T16:34:26.821Z,2.58
2022-08-22T16:37:34.609Z,2.35
2022-08-22T16:40:02.451Z,2.15
2022-08-22T16:43:09.755Z,2.28
2022-08-22T16:45:41.855Z,2.38
2022-08-22T16:48:34.632Z,2.30
2022-08-22T16:51:14.716Z,1.80
2022-08-22T16:54:13.181Z,2.17
2022-08-22T16:56:45.737Z,2.22
2022-08-22T16:59:40.986Z,2.22
2022-08-22T17:02:45.113Z,2.28
2022-08-22T17:05:50.902Z,2.00
2022-08-22T17:08:35.113Z,2.60
2022-08-22T17:11:45.082Z,2.70
2022-08-22T17:14:53.758Z,2.50
2022-08-22T17:17:51.254Z,2.20
2022-08-22T17:20:59.673Z,2.40
2022-08-22T17:24:14.085Z,2.53
2022-08-22T17:27:12.169Z,2.63
2022-08-22T17:29:58.696Z,2.70
2022-08-22T17:33:17.709Z,2.30
2022-08-22T17:35:59.924Z,2.70
2022-08-22T17:39:16.690Z,2.45
2022-08-22T17:42:21.409Z,2.90
2022-08-22T17:45:49.583Z,2.80
2022-08-22T17:49:12.784Z,3.55
2022-08-22T17:52:11.059Z,3.35
2022-08-22T17:54:52.367Z,3.13
2022-08-22T17:57:30.168Z,3.00
2022-08-22T18:00:12.030Z,3.20
2022-08-22T18:02:54.839Z,3.45
2022-08-22T18:05:38.088Z,3.03
2022-08-22T18:14:44.720Z,2.90
2022-08-22T18:17:49.382Z,3.47
2022-08-22T18:20:34.539Z,3.28
2022-08-22T18:23:39.263Z,3.47
2022-08-22T18:26:27.196Z,3.40
2022-08-22T18:29:00.724Z,3.25
2022-08-22T18:31:40.456Z,3.40
2022-08-22T18:34:31.196Z,2.60
2022-08-22T18:37:18.496Z,3.50
2022-08-22T18:40:01.289Z,3.10
2022-08-22T18:42:59.888Z,3.40
2022-08-22T18:45:45.779Z,2.63
2022-08-22T18:48:36.855Z,3.00
2022-08-22T18:51:34.976Z,3.28
2022-08-22T18:57:06.693Z,2.95
2022-08-22T19:00:01.598Z,3.47
2022-08-22T19:03:20.751Z,3.10
2022-08-22T19:06:15.604Z,3.42
2022-08-22T19:09:00.846Z,3.55
2022-08-22T19:11:55.892Z,3.03
2022-08-22T19:14:51.826Z,3.45
2022-08-22T19:17:46.547Z,3.88
2022-08-22T19:20:52.459Z,3.35
2022-08-22T19:23:31.997Z,3.08
2022-08-22T19:26:24.527Z,3.40
2022-08-22T19:29:00.158Z,3.13
2022-08-22T19:31:37.218Z,3.58
2022-08-22T19:34:25.657Z,3.35
2022-08-22T19:37:11.504Z,4.03
2022-08-22T19:40:05.261Z,3.72
2022-08-22T19:42:38.111Z,3.85
2022-08-22T19:45:22.102Z,4.32
2022-08-22T19:48:13.130Z,3.88
2022-08-22T19:50:43.648Z,3.85
2022-08-22T19:53:34.613Z,3.65
2022-08-22T19:56:10.814Z,3.63
2022-08-22T19:59:00.091Z,4.40
2022-08-22T20:01:50.857Z,4.13
2022-08-22T20:04:35.337Z,4.50
2022-08-22T20:07:48.646Z,4.15
2022-08-22T20:10:23.723Z,4.03
2022-08-22T20:13:18.418Z,4.47
2022-08-22T20:16:19.755Z,4.22
2022-08-22T20:19:18.379Z,4.32
2022-08-22T20:21:56.784Z,3.85
2022-08-22T20:24:39.581Z,4.80
2022-08-22T20:27:29.452Z,4.20
2022-08-22T20:30:18.147Z,4.07
2022-08-22T20:33:25.466Z,4.20
2022-08-22T20:35:59.143Z,3.67
2022-08-22T20:38:41.383Z,3.55
2022-08-22T20:41:45.446Z,3.80
2022-08-22T20:44:41.679Z,3.30
2022-08-22T20:47:21.242Z,3.95
2022-08-22T20:49:54.619Z,3.25
2022-08-22T20:52:30.103Z,3.50
2022-08-22T20:55:30.517Z,2.90
2022-08-22T20:58:05.954Z,3.20
2022-08-22T21:00:44.468Z,3.22
2022-08-22T21:03:32.711Z,3.38
2022-08-22T21:06:34.924Z,3.33
2022-08-22T21:09:41.007Z,3.60
2022-08-22T21:12:10.604Z,3.50
2022-08-22T21:14:46.149Z,3.08
2022-08-22T21:17:35.464Z,3.63
2022-08-22T21:20:21.221Z,3.17
2022-08-22T21:22:50.432Z,3.20
2022-08-22T21:25:18.043Z,3.42
2022-08-22T21:27:48.456Z,3.10
2022-08-22T21:30:25.537Z,3.55
2022-08-22T21:32:56.155Z,3.40
2022-08-22T21:35:33.891Z,3.78
2022-08-22T21:38:02.238Z,3.55
2022-08-22T21:40:35.873Z,3.92
2022-08-22T21:43:10.970Z,3.78
2022-08-22T21:45:38.399Z,3.60
2022-08-22T21:48:41.173Z,3.55
2022-08-22T21:51:45.909Z,3.38
2022-08-22T21:54:29.459Z,3.53
2022-08-22T21:57:20.238Z,3.50
2022-08-22T21:59:58.989Z,3.37
2022-08-22T22:02:39.952Z,3.63
2022-08-22T22:05:16.175Z,4.20
2022-08-22T22:07:47.479Z,3.65
2022-08-22T22:10:19.690Z,3.85
2022-08-22T22:12:51.857Z,3.35
2022-08-22T22:15:24.641Z,4.03
2022-08-22T22:17:53.570Z,3.55
2022-08-22T22:20:26.223Z,3.58
2022-08-22T22:22:55.188Z,3.33
2022-08-22T22:25:39.883Z,3.55
2022-08-22T22:28:17.218Z,3.50
2022-08-22T22:30:53.373Z,3.95
2022-08-22T22:33:27.027Z,4.07
2022-08-22T22:35:59.150Z,3.83
2022-08-22T22:38:26.779Z,3.80
2022-08-22T22:40:54.335Z,4.10
2022-08-22T22:43:21.785Z,4.70
2022-08-22T22:45:49.749Z,4.22
2022-08-22T22:48:24.235Z,4.55
2022-08-22T22:50:53.767Z,4.70
2022-08-22T22:53:33.681Z,5.20
2022-08-22T22:56:10.427Z,5.80
2022-08-22T22:58:40.017Z,5.13
2022-08-22T23:01:16.750Z,4.88
2022-08-22T23:03:47.355Z,4.72
2022-08-22T23:06:19.865Z,4.10
2022-08-22T23:08:48.438Z,5.63
2022-08-22T23:11:24.447Z,6.40
2022-08-22T23:13:53.337Z,5.60
2022-08-22T23:16:28.489Z,5.18
2022-08-22T23:18:56.772Z,5.47
2022-08-22T23:21:28.966Z,5.90
2022-08-22T23:23:58.975Z,6.03
2022-08-22T23:26:28.207Z,5.97
2022-08-22T23:28:57.299Z,5.68
2022-08-22T23:31:41.025Z,5.60
2022-08-22T23:34:15.861Z,6.13
2022-08-22T23:36:46.713Z,7.05
2022-08-22T23:39:16.532Z,6.80
2022-08-22T23:41:46.577Z,7.38
2022-08-22T23:44:19.330Z,6.82
2022-08-22T23:46:47.510Z,7.38
2022-08-22T23:49:15.976Z,6.85
2022-08-22T23:51:44.727Z,5.80
2022-08-22T23:54:13.327Z,5.93
2022-08-22T23:56:54.915Z,5.45
2022-08-22T23:59:30.876Z,5.93
